Schedule Details

Flight Number: ASX317X
Departure: Wroclaw (EPWR) at 13:40Z
Arrival: Gdansk im. Lecha Walesy (EPGD) at 14:40Z

Weather Information
EPWR 272230Z 08006KT 040V100 CAVOK 21/15 Q1021
EPGD 272230Z 06005KT 030V090 CAVOK 16/15 Q1025

Schedule Frequency

Route Map